createdAt,value
2023-12-22T00:02:11.186Z,3.70
2023-12-22T00:04:37.358Z,3.70
2023-12-22T00:07:03.877Z,3.70
2023-12-22T00:09:29.945Z,3.60
2023-12-22T00:11:56.212Z,3.60
2023-12-22T00:14:22.385Z,3.70
2023-12-22T00:16:48.622Z,3.70
2023-12-22T00:19:14.903Z,3.60
2023-12-22T00:21:41.145Z,3.60
2023-12-22T00:24:07.428Z,3.70
2023-12-22T00:26:33.515Z,3.70
2023-12-22T00:28:59.656Z,3.70
2023-12-22T00:31:25.844Z,3.60
2023-12-22T00:33:52.139Z,3.60
2023-12-22T00:36:20.792Z,4.20
2023-12-22T00:38:49.301Z,4.20
2023-12-22T00:41:17.328Z,4.30
2023-12-22T00:43:43.903Z,4.20
2023-12-22T00:46:10.048Z,4.20
2023-12-22T00:48:36.218Z,4.30
2023-12-22T00:51:03.673Z,4.30
2023-12-22T00:53:31.161Z,4.40
2023-12-22T00:55:57.872Z,4.40
2023-12-22T00:58:23.998Z,4.40
2023-12-22T01:00:50.590Z,4.50
2023-12-22T01:03:16.975Z,4.50
2023-12-22T01:05:43.433Z,4.60
2023-12-22T01:08:10.035Z,4.60
2023-12-22T01:10:36.252Z,4.60
2023-12-22T01:13:02.620Z,4.70
2023-12-22T01:15:31.599Z,4.70
2023-12-22T01:18:02.760Z,4.70
2023-12-22T01:20:32.873Z,4.70
2023-12-22T01:23:03.058Z,4.80
2023-12-22T01:25:34.613Z,4.80
2023-12-22T01:28:04.617Z,4.80
2023-12-22T01:30:34.536Z,4.90
2023-12-22T01:33:03.090Z,4.90
2023-12-22T01:35:30.028Z,4.90
2023-12-22T01:37:58.037Z,4.90
2023-12-22T01:40:24.577Z,4.90
2023-12-22T01:42:52.033Z,4.90
2023-12-22T01:45:20.657Z,4.90
2023-12-22T01:47:48.425Z,4.90
2023-12-22T01:50:16.806Z,4.90
2023-12-22T01:52:43.930Z,4.90
2023-12-22T01:55:11.094Z,5.00
2023-12-22T01:57:38.358Z,4.90
2023-12-22T02:00:05.119Z,5.00
2023-12-22T02:02:40.408Z,5.00
2023-12-22T02:05:15.647Z,5.00
2023-12-22T02:07:56.606Z,5.00
2023-12-22T02:10:30.427Z,5.10
2023-12-22T02:13:05.517Z,5.10
2023-12-22T02:15:40.731Z,5.10
2023-12-22T02:18:44.528Z,5.10
2023-12-22T02:21:23.256Z,5.10
2023-12-22T02:24:04.461Z,5.20
2023-12-22T02:26:39.837Z,5.20
2023-12-22T02:29:40.151Z,5.20
2023-12-22T02:32:25.747Z,5.20
2023-12-22T02:35:22.534Z,5.20
2023-12-22T02:38:00.522Z,5.20
2023-12-22T02:40:36.639Z,5.20
2023-12-22T02:43:28.303Z,5.20
2023-12-22T02:46:07.044Z,5.30
2023-12-22T02:49:07.406Z,5.20
2023-12-22T02:51:37.694Z,5.30
2023-12-22T02:58:01.551Z,5.30
2023-12-22T03:03:59.935Z,5.20
2023-12-22T03:06:31.403Z,5.20
2023-12-22T03:12:38.506Z,5.20
2023-12-22T03:15:46.961Z,5.20
2023-12-22T03:18:36.445Z,5.20
2023-12-22T03:21:22.912Z,5.20
2023-12-22T03:23:58.453Z,5.20
2023-12-22T03:26:36.874Z,5.20
2023-12-22T03:29:08.121Z,5.20
2023-12-22T03:31:49.094Z,5.20
2023-12-22T03:34:45.786Z,5.20
2023-12-22T03:37:19.404Z,5.20
2023-12-22T03:40:14.732Z,5.20
2023-12-22T03:42:46.693Z,5.20
2023-12-22T03:45:21.776Z,5.20
2023-12-22T03:48:01.849Z,5.20
2023-12-22T03:53:46.704Z,5.10
2023-12-22T03:56:33.735Z,5.20
2023-12-22T03:59:11.468Z,5.20
2023-12-22T04:01:42.411Z,5.20
2023-12-22T04:04:10.251Z,5.10
2023-12-22T04:06:40.538Z,5.20
2023-12-22T04:09:06.963Z,5.10
2023-12-22T04:11:40.481Z,5.10
2023-12-22T04:14:09.530Z,5.10
2023-12-22T04:16:39.728Z,5.10
2023-12-22T04:19:08.295Z,5.20
2023-12-22T04:21:35.683Z,5.20
2023-12-22T04:24:01.913Z,5.10
2023-12-22T04:26:28.057Z,5.10
2023-12-22T04:28:54.270Z,5.10
2023-12-22T04:31:20.487Z,5.10
2023-12-22T04:33:46.719Z,5.10
2023-12-22T04:36:12.849Z,5.10
2023-12-22T04:38:40.894Z,5.10
2023-12-22T04:41:06.990Z,5.00
2023-12-22T04:43:33.123Z,5.00
2023-12-22T04:45:59.346Z,5.00
2023-12-22T04:48:25.665Z,5.00
2023-12-22T04:50:51.900Z,5.00
2023-12-22T04:53:18.663Z,5.00
2023-12-22T04:55:44.842Z,5.00
2023-12-22T04:58:10.985Z,5.10
2023-12-22T05:00:37.228Z,5.10
2023-12-22T05:03:03.945Z,5.00
2023-12-22T05:05:30.049Z,5.00
2023-12-22T05:07:56.248Z,5.00
2023-12-22T05:10:22.422Z,4.90
2023-12-22T05:12:48.603Z,5.00
2023-12-22T05:15:14.654Z,4.90
2023-12-22T05:17:41.193Z,5.00
2023-12-22T05:20:07.655Z,4.90
2023-12-22T05:22:36.847Z,4.90
2023-12-22T05:25:03.517Z,4.90
2023-12-22T05:27:29.619Z,4.90
2023-12-22T05:29:55.837Z,4.80
2023-12-22T05:32:22.041Z,4.80
2023-12-22T05:34:48.233Z,4.90
2023-12-22T05:37:14.387Z,4.80
2023-12-22T05:39:40.507Z,4.80
2023-12-22T05:42:07.441Z,4.70
2023-12-22T05:44:34.471Z,4.80
2023-12-22T05:47:00.652Z,4.80
2023-12-22T05:49:26.987Z,4.80
2023-12-22T05:51:53.428Z,4.80
2023-12-22T05:54:19.763Z,4.80
2023-12-22T05:56:46.065Z,4.70
2023-12-22T05:59:12.217Z,4.80
2023-12-22T06:01:38.324Z,4.70
2023-12-22T06:04:04.569Z,4.70
2023-12-22T06:06:30.658Z,4.70
2023-12-22T06:08:56.807Z,4.70
2023-12-22T06:11:22.882Z,4.60
2023-12-22T06:13:49.132Z,4.70
2023-12-22T06:16:15.940Z,4.70
2023-12-22T06:18:42.436Z,4.70
2023-12-22T06:21:09.342Z,4.70
2023-12-22T06:23:36.570Z,4.70
2023-12-22T06:26:08.128Z,4.60
2023-12-22T06:28:36.722Z,4.60
2023-12-22T06:31:03.525Z,4.60
2023-12-22T06:33:30.418Z,4.70
2023-12-22T06:35:56.703Z,4.70
2023-12-22T06:38:22.848Z,4.70
2023-12-22T06:40:49.083Z,4.70
2023-12-22T06:43:15.320Z,4.70
2023-12-22T06:45:41.497Z,4.70
2023-12-22T06:48:07.976Z,4.60
2023-12-22T06:50:34.291Z,4.60
2023-12-22T06:53:06.888Z,4.60
2023-12-22T06:55:37.038Z,4.70
2023-12-22T06:58:03.184Z,4.70
2023-12-22T07:00:29.332Z,4.70
2023-12-22T07:02:55.854Z,4.70
2023-12-22T07:05:22.073Z,4.70
2023-12-22T07:07:48.543Z,4.70
2023-12-22T07:10:14.805Z,4.80
2023-12-22T07:12:42.408Z,4.70
2023-12-22T07:15:11.006Z,4.80
2023-12-22T07:17:37.585Z,4.80
2023-12-22T07:20:04.569Z,4.80
2023-12-22T07:22:30.775Z,4.80
2023-12-22T07:24:58.276Z,4.80
2023-12-22T07:27:26.328Z,4.80
2023-12-22T07:29:52.840Z,4.70
2023-12-22T07:32:18.934Z,4.70
2023-12-22T07:34:46.061Z,4.70
2023-12-22T07:37:12.503Z,4.70
2023-12-22T07:39:39.161Z,4.70
2023-12-22T07:42:06.900Z,4.70
2023-12-22T07:44:33.948Z,4.70
2023-12-22T07:47:01.728Z,4.70
2023-12-22T07:49:30.415Z,4.70
2023-12-22T07:51:57.195Z,4.70
2023-12-22T07:54:24.416Z,4.70
2023-12-22T07:56:50.892Z,4.80
2023-12-22T07:59:26.625Z,4.80
2023-12-22T08:01:57.116Z,4.70
2023-12-22T08:04:23.287Z,4.70
2023-12-22T08:06:49.576Z,4.70
2023-12-22T08:09:15.771Z,4.70
2023-12-22T08:11:41.910Z,4.70
2023-12-22T08:14:08.088Z,4.70
2023-12-22T08:16:34.238Z,4.70
2023-12-22T08:19:01.214Z,4.70
2023-12-22T08:21:34.471Z,4.80
2023-12-22T08:24:11.701Z,4.80
2023-12-22T08:26:38.646Z,4.80
2023-12-22T08:29:04.785Z,4.80
2023-12-22T08:31:30.907Z,4.70
2023-12-22T08:33:57.168Z,4.70
2023-12-22T08:36:23.356Z,4.80
2023-12-22T08:38:49.944Z,4.80
2023-12-22T08:41:16.510Z,4.80
2023-12-22T08:43:43.040Z,4.80
2023-12-22T08:46:10.244Z,4.80
2023-12-22T08:48:37.123Z,4.80
2023-12-22T08:51:04.605Z,4.80
2023-12-22T08:53:34.092Z,4.70
2023-12-22T08:56:00.655Z,4.70
2023-12-22T08:58:26.957Z,4.70
2023-12-22T09:00:53.310Z,4.70
2023-12-22T09:03:19.690Z,4.80
2023-12-22T09:05:45.854Z,4.80
2023-12-22T09:08:12.146Z,4.70
2023-12-22T09:10:38.435Z,4.70
2023-12-22T09:13:04.624Z,4.70
2023-12-22T09:15:30.772Z,4.70
2023-12-22T09:17:56.880Z,4.80
2023-12-22T09:20:23.324Z,4.80
2023-12-22T09:22:49.590Z,4.70
2023-12-22T09:25:15.735Z,4.80
2023-12-22T09:27:42.011Z,4.80
2023-12-22T09:30:08.567Z,4.80
2023-12-22T09:32:35.352Z,4.80
2023-12-22T09:35:01.814Z,4.70
2023-12-22T09:37:28.087Z,4.80
2023-12-22T09:39:54.330Z,4.70
2023-12-22T09:42:21.999Z,4.80
2023-12-22T09:44:49.570Z,4.80
2023-12-22T09:47:16.363Z,4.90
2023-12-22T09:49:43.146Z,4.90
2023-12-22T09:52:10.664Z,4.80
2023-12-22T09:54:37.336Z,4.90
2023-12-22T09:57:14.333Z,4.90
2023-12-22T09:59:48.008Z,4.80
2023-12-22T10:02:14.134Z,4.90
2023-12-22T10:04:40.316Z,4.90
2023-12-22T10:07:07.400Z,4.90
2023-12-22T10:09:33.570Z,5.00
2023-12-22T10:12:00.192Z,4.90
2023-12-22T10:14:26.824Z,4.90
2023-12-22T10:16:53.108Z,4.90
2023-12-22T10:19:20.737Z,5.00
2023-12-22T10:21:48.146Z,5.00
2023-12-22T10:24:33.120Z,4.90
2023-12-22T10:26:59.359Z,4.90
2023-12-22T10:29:25.528Z,4.90
2023-12-22T10:31:51.793Z,4.90
2023-12-22T10:34:18.353Z,4.90
2023-12-22T10:36:44.642Z,4.90
2023-12-22T10:39:10.826Z,5.00
2023-12-22T10:41:37.058Z,5.00
2023-12-22T10:44:03.683Z,5.00
2023-12-22T10:46:32.130Z,5.00
2023-12-22T10:48:58.363Z,5.20
2023-12-22T10:51:24.555Z,5.10
2023-12-22T10:53:51.365Z,5.00
2023-12-22T10:56:17.720Z,5.00
2023-12-22T10:58:46.016Z,5.00
2023-12-22T11:01:14.508Z,5.10
2023-12-22T11:03:44.517Z,5.10
2023-12-22T11:06:12.835Z,5.10
2023-12-22T11:08:40.518Z,5.10
2023-12-22T11:11:13.942Z,5.20
2023-12-22T11:13:40.975Z,5.20
2023-12-22T11:16:07.515Z,5.20
2023-12-22T11:18:34.655Z,5.20
2023-12-22T11:21:02.589Z,5.30
2023-12-22T11:23:31.091Z,5.30
2023-12-22T11:25:59.321Z,5.20
2023-12-22T11:28:25.818Z,5.20
2023-12-22T11:30:55.478Z,5.30
2023-12-22T11:33:24.149Z,5.30
2023-12-22T11:35:50.661Z,5.30
2023-12-22T11:38:16.874Z,5.30
2023-12-22T11:40:43.227Z,5.30
2023-12-22T11:43:10.525Z,5.30
2023-12-22T11:45:37.083Z,5.30
2023-12-22T11:48:10.636Z,5.30
2023-12-22T11:50:37.245Z,5.30
2023-12-22T11:53:19.727Z,5.30
2023-12-22T11:55:58.941Z,5.20
2023-12-22T11:58:34.280Z,5.20
2023-12-22T12:01:06.323Z,5.20
2023-12-22T12:03:32.816Z,5.30
2023-12-22T12:06:14.321Z,5.30
2023-12-22T12:08:40.684Z,5.30
2023-12-22T12:11:07.424Z,5.20
2023-12-22T12:13:34.434Z,5.30
2023-12-22T12:16:01.742Z,5.30
2023-12-22T12:18:28.817Z,5.30
2023-12-22T12:20:54.983Z,5.30
2023-12-22T12:23:21.577Z,5.30
2023-12-22T12:25:47.967Z,5.30
2023-12-22T12:28:14.494Z,5.30
2023-12-22T12:30:41.576Z,5.40
2023-12-22T12:33:09.063Z,5.40
2023-12-22T12:35:37.531Z,5.40
2023-12-22T12:38:05.233Z,5.40
2023-12-22T12:40:33.059Z,5.40
2023-12-22T12:42:59.340Z,5.40
2023-12-22T12:45:25.926Z,5.40
2023-12-22T12:47:55.845Z,5.40
2023-12-22T12:50:22.790Z,5.40
2023-12-22T12:52:50.279Z,5.40
2023-12-22T12:55:20.519Z,5.40
2023-12-22T12:57:51.226Z,5.40
2023-12-22T13:00:24.356Z,5.40
2023-12-22T13:02:50.592Z,5.30
2023-12-22T13:05:23.450Z,5.30
2023-12-22T13:07:49.952Z,5.30
2023-12-22T13:10:26.172Z,5.30
2023-12-22T13:12:54.512Z,5.30
2023-12-22T13:15:21.989Z,5.30
2023-12-22T13:17:48.575Z,5.30
2023-12-22T13:20:14.992Z,5.30
2023-12-22T13:22:41.263Z,5.30
2023-12-22T13:25:07.679Z,5.30
2023-12-22T13:27:44.202Z,5.30
2023-12-22T13:30:10.513Z,5.30
2023-12-22T13:32:36.714Z,5.30
2023-12-22T13:35:03.218Z,5.20
2023-12-22T13:37:31.092Z,5.20
2023-12-22T13:39:58.121Z,5.20
2023-12-22T13:42:24.845Z,5.20
2023-12-22T13:44:52.606Z,5.20
2023-12-22T13:47:19.234Z,5.30
2023-12-22T13:49:45.982Z,5.30
2023-12-22T13:52:29.045Z,5.20
2023-12-22T13:54:57.278Z,5.20
2023-12-22T13:57:23.428Z,5.20
2023-12-22T13:59:52.802Z,5.20
2023-12-22T14:02:25.451Z,5.20
2023-12-22T14:04:51.756Z,5.20
2023-12-22T14:07:19.211Z,5.20
2023-12-22T14:09:45.423Z,5.20
2023-12-22T14:12:14.285Z,5.10
2023-12-22T14:14:45.677Z,5.10
2023-12-22T14:17:11.861Z,5.20
2023-12-22T14:19:38.094Z,5.10
2023-12-22T14:22:04.272Z,5.10
2023-12-22T14:24:30.515Z,5.10
2023-12-22T14:26:57.267Z,5.10
2023-12-22T14:29:23.677Z,5.20
2023-12-22T14:31:50.426Z,5.10
2023-12-22T14:34:17.458Z,5.10
2023-12-22T14:36:44.817Z,5.10
2023-12-22T14:39:13.304Z,5.00
2023-12-22T14:41:42.663Z,5.00
2023-12-22T14:44:09.072Z,5.00
2023-12-22T14:46:39.345Z,5.00
2023-12-22T14:49:05.558Z,5.00
2023-12-22T14:51:35.389Z,5.00
2023-12-22T14:54:01.508Z,4.90
2023-12-22T14:56:27.692Z,4.90
2023-12-22T14:58:53.827Z,4.90
2023-12-22T15:01:20.211Z,4.90
2023-12-22T15:03:46.477Z,4.90
2023-12-22T15:06:14.626Z,4.90
2023-12-22T15:08:41.017Z,4.90
2023-12-22T15:11:08.100Z,5.00
2023-12-22T15:13:35.005Z,4.90
2023-12-22T15:16:05.298Z,5.00
2023-12-22T15:18:31.396Z,4.90
2023-12-22T15:20:57.482Z,4.90
2023-12-22T15:23:23.604Z,4.90
2023-12-22T15:25:49.765Z,4.90
2023-12-22T15:28:16.149Z,5.00
2023-12-22T15:30:42.546Z,4.90
2023-12-22T15:33:08.762Z,5.00
2023-12-22T15:35:35.140Z,4.90
2023-12-22T15:38:01.300Z,4.90
2023-12-22T15:40:27.809Z,4.90
2023-12-22T15:42:54.010Z,4.90
2023-12-22T15:45:20.384Z,4.90
2023-12-22T15:47:46.682Z,4.90
2023-12-22T15:50:12.945Z,4.90
2023-12-22T15:52:39.093Z,4.90
2023-12-22T15:55:05.446Z,4.90
2023-12-22T15:57:31.580Z,4.90
2023-12-22T15:59:57.709Z,4.90
2023-12-22T16:02:23.904Z,4.90
2023-12-22T16:04:50.068Z,4.90
2023-12-22T16:07:16.263Z,4.90
2023-12-22T16:09:42.375Z,4.90
2023-12-22T16:12:08.706Z,5.00
2023-12-22T16:14:35.485Z,5.00
2023-12-22T16:17:01.809Z,4.90
2023-12-22T16:19:28.003Z,4.90
2023-12-22T16:21:54.254Z,4.90
2023-12-22T16:24:20.668Z,4.90
2023-12-22T16:26:47.098Z,4.90
2023-12-22T16:29:14.023Z,4.90
2023-12-22T16:31:40.704Z,4.90
2023-12-22T16:34:07.243Z,4.90
2023-12-22T16:36:33.348Z,4.90
2023-12-22T16:38:59.533Z,4.90
2023-12-22T16:41:25.930Z,4.90
2023-12-22T16:43:53.647Z,4.90
2023-12-22T16:46:20.166Z,4.90
2023-12-22T16:48:46.595Z,5.00
2023-12-22T16:51:15.802Z,5.00
2023-12-22T16:53:42.263Z,4.90
2023-12-22T16:56:08.538Z,5.00
2023-12-22T16:58:34.728Z,5.00
2023-12-22T17:01:21.154Z,5.00
2023-12-22T17:03:49.273Z,5.00
2023-12-22T17:06:15.729Z,5.00
2023-12-22T17:08:42.937Z,5.10
2023-12-22T17:11:09.232Z,5.10
2023-12-22T17:13:35.435Z,5.00
2023-12-22T17:16:01.642Z,5.00
2023-12-22T17:18:29.107Z,5.00
2023-12-22T17:21:02.163Z,5.00
2023-12-22T17:23:31.698Z,5.10
2023-12-22T17:25:57.854Z,5.10
2023-12-22T17:28:24.003Z,5.10
2023-12-22T17:30:51.093Z,5.10
2023-12-22T17:33:17.374Z,5.10
2023-12-22T17:35:44.727Z,5.10
2023-12-22T17:38:10.866Z,5.10
2023-12-22T17:40:37.011Z,5.20
2023-12-22T17:43:03.257Z,5.20
2023-12-22T17:45:29.409Z,5.10
2023-12-22T17:47:55.987Z,5.10
2023-12-22T17:50:22.670Z,5.20
2023-12-22T17:52:48.945Z,5.20
2023-12-22T17:55:15.038Z,5.20
2023-12-22T17:57:41.198Z,5.20
2023-12-22T18:00:07.690Z,5.10
2023-12-22T18:02:34.044Z,5.20
2023-12-22T18:05:00.218Z,5.20
2023-12-22T18:07:26.409Z,5.20
2023-12-22T18:09:52.477Z,5.20
2023-12-22T18:12:18.651Z,5.20
2023-12-22T18:14:45.105Z,5.20
2023-12-22T18:17:11.396Z,5.20
2023-12-22T18:19:37.635Z,5.20
2023-12-22T18:22:03.859Z,5.20
2023-12-22T18:24:29.967Z,5.20
2023-12-22T18:26:56.125Z,5.20
2023-12-22T18:29:22.604Z,5.30
2023-12-22T18:31:49.717Z,5.20
2023-12-22T18:34:16.072Z,5.20
2023-12-22T18:36:43.977Z,5.20
2023-12-22T18:39:12.157Z,5.30
2023-12-22T18:41:38.537Z,5.30
2023-12-22T18:44:04.723Z,5.30
2023-12-22T18:46:31.061Z,5.30
2023-12-22T18:48:57.263Z,5.20
2023-12-22T18:51:23.928Z,5.20
2023-12-22T18:53:50.942Z,5.20
2023-12-22T18:56:20.976Z,5.20
2023-12-22T18:58:47.832Z,5.20
2023-12-22T19:01:21.605Z,5.30
2023-12-22T19:03:56.722Z,5.30
2023-12-22T19:06:22.948Z,5.30
2023-12-22T19:08:50.368Z,5.30
2023-12-22T19:11:16.600Z,5.30
2023-12-22T19:13:43.391Z,5.30
2023-12-22T19:16:09.773Z,5.30
2023-12-22T19:18:35.977Z,5.30
2023-12-22T19:21:02.719Z,5.30
2023-12-22T19:23:28.836Z,5.30
2023-12-22T19:25:55.081Z,5.30
2023-12-22T19:28:22.370Z,5.30
2023-12-22T19:30:52.393Z,5.30
2023-12-22T19:33:21.643Z,5.30
2023-12-22T19:35:47.994Z,5.30
2023-12-22T19:38:16.490Z,5.30
2023-12-22T19:40:46.184Z,5.30
2023-12-22T19:43:12.645Z,5.20
2023-12-22T19:45:38.956Z,5.20
2023-12-22T19:48:05.501Z,5.20
2023-12-22T19:50:33.744Z,5.20
2023-12-22T19:53:01.038Z,5.20
2023-12-22T19:55:28.513Z,5.30
2023-12-22T19:57:55.877Z,5.20
2023-12-22T20:00:23.107Z,5.20
2023-12-22T20:02:50.287Z,5.20
2023-12-22T20:05:16.826Z,5.20
2023-12-22T20:07:43.166Z,5.20
2023-12-22T20:10:09.351Z,5.10
2023-12-22T20:12:35.589Z,5.10
2023-12-22T20:15:01.814Z,5.00
2023-12-22T20:17:29.900Z,5.10
2023-12-22T20:19:58.055Z,5.10
2023-12-22T20:22:26.283Z,5.00
2023-12-22T20:24:54.293Z,5.00
2023-12-22T20:27:21.675Z,5.00
2023-12-22T20:29:48.713Z,5.00
2023-12-22T20:32:15.435Z,5.00
2023-12-22T20:34:42.182Z,5.00
2023-12-22T20:37:08.387Z,4.90
2023-12-22T20:39:34.545Z,4.90
2023-12-22T20:42:00.729Z,4.90
2023-12-22T20:44:26.978Z,5.00
2023-12-22T20:46:53.556Z,5.00
2023-12-22T20:49:20.030Z,5.00
2023-12-22T20:51:51.519Z,5.00
2023-12-22T20:54:18.285Z,5.00
2023-12-22T20:56:44.790Z,5.00
2023-12-22T20:59:11.158Z,5.00
2023-12-22T21:01:38.710Z,5.00
2023-12-22T21:04:05.067Z,5.00
2023-12-22T21:06:31.227Z,5.00
2023-12-22T21:08:57.696Z,5.00
2023-12-22T21:11:25.597Z,5.00
2023-12-22T21:13:51.796Z,5.00
2023-12-22T21:16:17.923Z,4.90
2023-12-22T21:18:44.315Z,4.90
2023-12-22T21:21:10.926Z,4.90
2023-12-22T21:23:38.265Z,4.90
2023-12-22T21:26:04.408Z,4.90
2023-12-22T21:28:30.529Z,4.90
2023-12-22T21:30:56.780Z,5.00
2023-12-22T21:33:22.969Z,4.90
2023-12-22T21:35:49.671Z,4.90
2023-12-22T21:38:15.892Z,4.90
2023-12-22T21:40:42.314Z,4.80
2023-12-22T21:43:08.505Z,4.90
2023-12-22T21:45:35.182Z,4.90
2023-12-22T21:48:01.456Z,4.90
2023-12-22T21:50:27.683Z,4.80
2023-12-22T21:52:53.838Z,4.80
2023-12-22T21:55:19.940Z,4.80
2023-12-22T21:57:46.089Z,4.80
2023-12-22T22:00:12.628Z,4.80
2023-12-22T22:02:39.059Z,4.70
2023-12-22T22:05:05.325Z,4.60
2023-12-22T22:07:31.547Z,4.60
2023-12-22T22:09:57.669Z,4.60
2023-12-22T22:12:23.781Z,4.50
2023-12-22T22:14:49.893Z,4.50
2023-12-22T22:17:16.074Z,4.50
2023-12-22T22:19:42.779Z,4.60
2023-12-22T22:22:08.901Z,4.60
2023-12-22T22:24:36.383Z,4.60
2023-12-22T22:27:03.586Z,4.60
2023-12-22T22:29:29.699Z,4.60
2023-12-22T22:31:55.929Z,4.50
2023-12-22T22:34:22.095Z,4.60
2023-12-22T22:36:48.478Z,4.60
2023-12-22T22:39:14.910Z,4.60
2023-12-22T22:41:41.560Z,4.50
2023-12-22T22:44:07.699Z,4.50
2023-12-22T22:46:33.973Z,4.50
2023-12-22T22:49:00.242Z,4.50
2023-12-22T22:51:26.833Z,4.40
2023-12-22T22:53:52.997Z,4.40
2023-12-22T22:56:20.507Z,4.40
2023-12-22T22:58:46.877Z,4.40
2023-12-22T23:01:13.208Z,4.40
2023-12-22T23:03:39.392Z,4.40
2023-12-22T23:06:06.655Z,4.40
2023-12-22T23:08:33.298Z,4.40
2023-12-22T23:10:59.760Z,4.40
2023-12-22T23:13:25.949Z,4.40
2023-12-22T23:15:55.433Z,4.40
2023-12-22T23:18:21.731Z,4.40
2023-12-22T23:20:47.896Z,4.50
2023-12-22T23:23:14.002Z,4.40
2023-12-22T23:25:40.497Z,4.50
2023-12-22T23:28:06.678Z,4.50
2023-12-22T23:30:32.837Z,4.50
2023-12-22T23:32:59.001Z,4.50
2023-12-22T23:35:25.210Z,4.50
2023-12-22T23:37:51.556Z,4.50
2023-12-22T23:40:17.878Z,4.50
2023-12-22T23:42:44.010Z,4.50
2023-12-22T23:45:10.161Z,4.50
2023-12-22T23:47:36.304Z,4.50
2023-12-22T23:50:02.485Z,4.50
2023-12-22T23:52:28.679Z,4.50
2023-12-22T23:54:54.750Z,4.60
2023-12-22T23:57:22.356Z,4.60
2023-12-22T23:59:48.530Z,4.60
